Time;durP1;ratioP1;P1;durP2;ratioP2;P2;SDS_P1;SDS_P2;PMS_P1;PMS_P2;Temp;Humidity;BMP_temperature;BMP_pressure;BME280_temperature;BME280_humidity;BME280_pressure;Samples;Min_cycle;Max_cycle;Signal;HPM_P1;HPM_P2
2020/12/22 00:01:58;;;;;;;15.10;9.32;;;5.80;99.90;;;;;;5028831;28;20504;-70
2020/12/22 00:04:25;;;;;;;15.00;9.07;;;5.80;99.90;;;;;;5028769;28;20040;-67
2020/12/22 00:06:56;;;;;;;16.63;9.77;;;5.80;99.90;;;;;;5026308;28;20049;-70
2020/12/22 00:09:23;;;;;;;12.05;9.07;;;5.80;99.90;;;;;;5027790;28;20177;-75
2020/12/22 00:11:50;;;;;;;14.93;8.80;;;5.70;99.90;;;;;;5032177;28;20558;-70
2020/12/22 00:14:17;;;;;;;13.77;9.02;;;5.70;99.90;;;;;;5025513;28;20066;-70
2020/12/22 00:16:44;;;;;;;19.40;9.93;;;5.70;99.90;;;;;;5027620;28;20083;-67
2020/12/22 00:19:10;;;;;;;16.63;10.10;;;5.70;99.90;;;;;;5027410;28;21135;-67
2020/12/22 00:21:37;;;;;;;11.70;8.95;;;5.70;99.90;;;;;;5025918;28;20210;-70
2020/12/22 00:24:06;;;;;;;15.07;10.10;;;5.60;99.90;;;;;;5027239;28;20040;-72
2020/12/22 00:26:33;;;;;;;16.90;9.25;;;5.60;99.90;;;;;;5028837;28;20049;-75
2020/12/22 00:28:59;;;;;;;19.90;9.60;;;5.50;99.90;;;;;;5032036;28;20072;-69
2020/12/22 00:31:26;;;;;;;16.48;9.70;;;5.50;99.90;;;;;;5027406;28;20048;-67
2020/12/22 00:33:52;;;;;;;15.80;9.55;;;5.50;99.90;;;;;;5027714;28;20120;-71
2020/12/22 00:36:19;;;;;;;16.30;9.10;;;5.40;99.90;;;;;;5027058;28;20573;-70
2020/12/22 00:38:45;;;;;;;12.48;8.38;;;5.40;99.90;;;;;;5027755;28;20068;-67
2020/12/22 00:41:13;;;;;;;21.23;11.88;;;5.40;99.90;;;;;;5031863;28;20044;-72
2020/12/22 00:43:41;;;;;;;24.08;13.30;;;5.40;99.90;;;;;;5026438;28;20136;-69
2020/12/22 00:46:08;;;;;;;13.75;8.50;;;5.40;99.90;;;;;;5027397;28;20147;-70
2020/12/22 00:48:35;;;;;;;12.65;8.00;;;5.30;99.90;;;;;;5029958;28;20045;-68
2020/12/22 00:51:01;;;;;;;9.60;7.18;;;5.30;99.90;;;;;;5023767;28;20049;-68
2020/12/22 00:53:28;;;;;;;15.10;8.35;;;5.30;99.90;;;;;;5022587;28;20757;-67
2020/12/22 00:55:56;;;;;;;17.77;9.05;;;5.30;99.90;;;;;;5028153;28;20112;-71
2020/12/22 00:58:23;;;;;;;24.13;12.05;;;5.30;99.90;;;;;;5029779;28;20180;-67
2020/12/22 01:00:49;;;;;;;14.50;8.93;;;5.30;99.90;;;;;;5029901;28;20122;-73
2020/12/22 01:03:16;;;;;;;17.77;11.35;;;5.30;99.90;;;;;;5025779;28;20068;-69
2020/12/22 01:05:42;;;;;;;15.43;10.32;;;5.30;99.90;;;;;;5028709;28;20059;-70
2020/12/22 01:08:08;;;;;;;16.15;11.35;;;5.30;99.90;;;;;;5026867;28;20069;-67
2020/12/22 01:10:35;;;;;;;17.05;9.38;;;5.30;99.90;;;;;;5025631;28;20171;-67
2020/12/22 01:13:01;;;;;;;18.88;8.95;;;5.30;99.90;;;;;;5031872;28;20037;-68
2020/12/22 01:15:27;;;;;;;16.60;10.52;;;5.30;99.90;;;;;;5022846;28;20115;-72
2020/12/22 01:17:54;;;;;;;14.75;10.48;;;5.30;99.90;;;;;;5033378;28;20059;-67
2020/12/22 01:20:20;;;;;;;19.17;9.50;;;5.30;99.90;;;;;;5031366;28;20091;-69
2020/12/22 01:22:47;;;;;;;19.38;11.32;;;5.20;99.90;;;;;;5024516;28;20554;-68
2020/12/22 01:25:13;;;;;;;18.42;11.45;;;5.20;99.90;;;;;;5029959;28;20053;-67
2020/12/22 01:27:39;;;;;;;15.10;10.32;;;5.20;99.90;;;;;;5027395;28;20061;-69
2020/12/22 01:30:06;;;;;;;23.02;8.57;;;5.20;99.90;;;;;;5028627;28;20372;-70
2020/12/22 01:32:32;;;;;;;14.18;8.00;;;5.10;99.90;;;;;;5027384;28;20152;-67
2020/12/22 01:34:59;;;;;;;13.73;8.27;;;5.10;99.90;;;;;;5026573;28;20157;-70
2020/12/22 01:37:25;;;;;;;12.10;7.75;;;5.00;99.90;;;;;;5026841;28;20457;-73
2020/12/22 01:39:52;;;;;;;15.82;9.32;;;5.00;99.90;;;;;;5023256;28;20124;-72
2020/12/22 01:42:18;;;;;;;21.30;10.60;;;5.00;99.90;;;;;;5026731;28;20682;-67
2020/12/22 01:44:45;;;;;;;12.23;7.97;;;5.00;99.90;;;;;;5030373;28;20091;-72
2020/12/22 01:47:12;;;;;;;18.90;9.77;;;5.00;99.90;;;;;;5023782;28;20461;-75
2020/12/22 01:49:39;;;;;;;15.15;8.40;;;5.00;99.90;;;;;;5026011;28;20686;-67
2020/12/22 01:52:06;;;;;;;15.93;7.70;;;4.90;99.90;;;;;;5028198;28;20065;-69
2020/12/22 01:54:33;;;;;;;10.63;7.57;;;4.90;99.90;;;;;;5033030;28;20147;-69
2020/12/22 01:57:08;;;;;;;15.45;7.43;;;4.90;99.90;;;;;;5017109;28;20045;-71
2020/12/22 01:59:36;;;;;;;10.13;7.05;;;4.80;99.90;;;;;;5016619;28;20052;-68
2020/12/22 02:02:02;;;;;;;13.05;7.43;;;4.90;99.90;;;;;;5021469;28;20151;-72
2020/12/22 02:04:31;;;;;;;10.73;7.50;;;4.90;99.90;;;;;;5028300;28;20060;-68
2020/12/22 02:06:58;;;;;;;13.27;6.95;;;4.80;99.90;;;;;;5030511;28;20109;-73
2020/12/22 02:09:25;;;;;;;10.80;6.90;;;4.80;99.90;;;;;;5024391;28;20281;-71
2020/12/22 02:11:52;;;;;;;16.90;7.18;;;4.90;99.90;;;;;;5029497;28;21019;-69
2020/12/22 02:14:18;;;;;;;7.68;6.07;;;4.90;99.90;;;;;;5026340;28;20419;-70
2020/12/22 02:16:45;;;;;;;11.50;7.85;;;4.90;99.90;;;;;;5025338;28;20049;-73
2020/12/22 02:19:23;;;;;;;17.90;7.55;;;4.90;99.90;;;;;;5036533;28;20102;-69
2020/12/22 02:21:50;;;;;;;13.55;7.60;;;4.90;99.90;;;;;;5024718;28;20045;-68
2020/12/22 02:24:17;;;;;;;12.55;8.20;;;4.90;99.90;;;;;;5024969;28;20045;-67
2020/12/22 02:26:43;;;;;;;15.73;8.35;;;4.90;99.90;;;;;;5027586;28;20163;-70
2020/12/22 02:29:10;;;;;;;11.50;7.38;;;4.90;99.90;;;;;;5023740;28;20508;-69
2020/12/22 02:31:37;;;;;;;17.52;8.23;;;4.90;99.90;;;;;;5026212;28;20402;-68
2020/12/22 02:34:03;;;;;;;17.55;7.38;;;5.00;99.90;;;;;;5024867;28;20076;-70
2020/12/22 02:36:48;;;;;;;12.32;7.95;;;5.00;99.90;;;;;;5026331;28;20049;-68
2020/12/22 02:39:15;;;;;;;12.00;7.85;;;5.00;99.90;;;;;;5027698;28;20622;-67
2020/12/22 02:41:42;;;;;;;14.88;8.13;;;5.00;99.90;;;;;;5027996;28;20045;-70
2020/12/22 02:44:08;;;;;;;13.00;9.40;;;5.00;99.90;;;;;;5027653;28;20041;-66
2020/12/22 02:46:35;;;;;;;12.02;8.70;;;5.00;99.90;;;;;;5028113;28;20052;-68
2020/12/22 02:49:03;;;;;;;19.17;8.98;;;5.00;99.90;;;;;;5026967;28;20660;-69
2020/12/22 02:51:31;;;;;;;20.08;8.32;;;5.00;99.90;;;;;;5030469;28;20045;-66
2020/12/22 02:53:57;;;;;;;15.75;9.10;;;5.00;99.90;;;;;;5025302;28;20057;-70
2020/12/22 02:56:24;;;;;;;16.35;10.05;;;5.00;99.90;;;;;;5023262;28;20116;-66
2020/12/22 02:58:51;;;;;;;12.57;8.88;;;5.00;99.90;;;;;;5024851;28;20127;-68
2020/12/22 03:01:18;;;;;;;13.48;8.75;;;5.00;99.90;;;;;;5027729;28;20044;-69
2020/12/22 03:03:46;;;;;;;19.83;9.48;;;4.90;99.90;;;;;;5027109;28;20151;-70
2020/12/22 03:06:13;;;;;;;18.20;9.23;;;4.90;99.90;;;;;;5028035;28;20068;-70
2020/12/22 03:08:39;;;;;;;17.30;8.23;;;5.00;99.90;;;;;;5025450;28;20393;-71
2020/12/22 03:11:06;;;;;;;18.08;8.93;;;5.00;99.90;;;;;;5028334;28;20045;-69
2020/12/22 03:13:33;;;;;;;16.50;8.38;;;5.00;99.90;;;;;;5027246;28;20056;-70
2020/12/22 03:16:00;;;;;;;11.77;7.78;;;5.00;99.90;;;;;;5030031;28;20515;-67
2020/12/22 03:18:26;;;;;;;10.30;7.07;;;5.00;99.90;;;;;;5026751;28;20057;-69
2020/12/22 03:20:53;;;;;;;15.90;8.38;;;5.00;99.90;;;;;;5031334;28;20053;-67
2020/12/22 03:23:19;;;;;;;16.27;9.27;;;5.00;99.90;;;;;;5023434;28;20060;-73
2020/12/22 03:25:46;;;;;;;30.30;11.60;;;5.10;99.90;;;;;;5033957;28;20850;-73
2020/12/22 03:28:13;;;;;;;13.18;7.88;;;5.10;99.90;;;;;;5029209;28;20045;-67
2020/12/22 03:30:39;;;;;;;17.98;9.52;;;5.10;99.90;;;;;;5030454;28;20098;-70
2020/12/22 03:33:06;;;;;;;23.00;12.95;;;5.10;99.90;;;;;;5029469;28;20060;-75
2020/12/22 03:35:32;;;;;;;16.48;10.02;;;5.10;99.90;;;;;;5028981;28;20065;-70
2020/12/22 03:37:59;;;;;;;18.27;8.70;;;5.10;99.90;;;;;;5028937;28;20127;-68
2020/12/22 03:40:26;;;;;;;28.30;13.98;;;5.10;99.90;;;;;;5026187;28;20058;-74
2020/12/22 03:42:53;;;;;;;20.75;12.48;;;5.10;99.90;;;;;;5030453;28;20714;-75
2020/12/22 03:45:19;;;;;;;27.52;13.70;;;5.20;99.90;;;;;;5028320;28;20084;-72
2020/12/22 03:47:46;;;;;;;17.05;10.23;;;5.20;99.90;;;;;;5025530;28;20041;-68
2020/12/22 03:50:22;;;;;;;16.77;10.32;;;5.30;99.90;;;;;;5025790;28;20515;-68
2020/12/22 03:52:49;;;;;;;19.73;13.02;;;5.30;99.90;;;;;;5027383;28;20057;-70
2020/12/22 03:55:16;;;;;;;16.80;11.38;;;5.30;99.90;;;;;;5030338;28;20092;-68
2020/12/22 03:57:42;;;;;;;35.95;20.58;;;5.30;99.90;;;;;;5027962;28;21061;-67
2020/12/22 04:00:12;;;;;;;35.58;18.00;;;5.20;99.90;;;;;;5027291;28;20423;-76
2020/12/22 04:02:39;;;;;;;24.30;13.57;;;5.20;99.90;;;;;;5028844;28;20068;-68
2020/12/22 04:05:05;;;;;;;28.48;17.52;;;5.20;99.90;;;;;;5031805;28;20287;-75
2020/12/22 04:07:31;;;;;;;26.40;16.05;;;5.20;99.90;;;;;;5023883;28;20236;-69
2020/12/22 04:09:58;;;;;;;26.83;13.48;;;5.20;99.90;;;;;;5030102;28;20049;-66
2020/12/22 04:12:24;;;;;;;24.73;11.98;;;5.30;99.90;;;;;;5027349;28;20049;-70
2020/12/22 04:14:51;;;;;;;28.05;13.20;;;5.30;99.90;;;;;;5031076;28;20052;-69
2020/12/22 04:17:17;;;;;;;28.50;13.32;;;5.30;99.90;;;;;;5031830;28;20041;-69
2020/12/22 04:19:44;;;;;;;26.20;11.68;;;5.20;99.90;;;;;;5028404;28;20143;-76
2020/12/22 04:22:10;;;;;;;25.35;15.48;;;5.20;99.90;;;;;;5026141;28;20040;-67
2020/12/22 04:24:36;;;;;;;21.33;12.45;;;5.20;99.90;;;;;;5025772;28;20128;-67
2020/12/22 04:27:03;;;;;;;36.15;12.95;;;5.20;99.90;;;;;;5029297;28;20040;-68
2020/12/22 04:29:29;;;;;;;20.38;11.75;;;5.20;99.90;;;;;;5027683;28;20061;-72
2020/12/22 04:31:56;;;;;;;29.13;14.73;;;5.20;99.90;;;;;;5028156;28;20041;-67
2020/12/22 04:34:24;;;;;;;35.90;15.68;;;5.20;99.90;;;;;;5028530;28;20073;-69
2020/12/22 04:36:51;;;;;;;28.65;13.70;;;5.20;99.90;;;;;;5025185;28;20565;-75
2020/12/22 04:39:18;;;;;;;21.23;13.23;;;5.20;99.90;;;;;;5031037;28;20037;-69
2020/12/22 04:41:48;;;;;;;30.25;13.70;;;5.20;99.90;;;;;;5027820;28;20041;-67
2020/12/22 04:44:15;;;;;;;;;;;5.20;99.90;;;;;;5030103;28;20041;-69
2020/12/22 04:46:49;;;;;;;37.70;13.63;;;5.20;99.90;;;;;;5025987;28;20414;-68
2020/12/22 04:49:20;;;;;;;52.42;27.50;;;5.30;99.90;;;;;;5023011;28;21205;-68
2020/12/22 04:51:50;;;;;;;24.70;15.15;;;5.20;99.90;;;;;;5029862;28;20057;-69
2020/12/22 04:54:32;;;;;;;31.95;16.48;;;5.30;99.90;;;;;;5025500;28;20057;-67
2020/12/22 04:57:00;;;;;;;25.55;14.85;;;5.30;99.90;;;;;;5029517;28;20313;-67
2020/12/22 04:59:28;;;;;;;30.38;16.15;;;5.20;99.90;;;;;;5031860;28;20158;-71
2020/12/22 05:01:56;;;;;;;30.38;15.10;;;5.20;99.90;;;;;;5026300;28;20041;-69
2020/12/22 05:04:23;;;;;;;27.55;13.43;;;5.20;99.90;;;;;;5029918;28;20507;-69
2020/12/22 05:06:49;;;;;;;46.55;25.98;;;5.20;99.90;;;;;;5024983;28;20064;-68
2020/12/22 05:09:16;;;;;;;20.73;10.60;;;5.20;99.90;;;;;;5025137;28;20072;-72
2020/12/22 05:11:43;;;;;;;20.88;10.70;;;5.20;99.90;;;;;;5026082;28;20509;-68
2020/12/22 05:14:09;;;;;;;23.15;10.13;;;5.20;99.90;;;;;;5029011;28;20136;-68
2020/12/22 05:16:36;;;;;;;18.27;11.07;;;5.20;99.90;;;;;;5026345;28;20417;-66
2020/12/22 05:19:04;;;;;;;17.63;9.15;;;5.20;99.90;;;;;;5025484;28;20049;-69
2020/12/22 05:21:35;;;;;;;22.38;10.10;;;5.20;99.90;;;;;;5030029;28;20143;-68
2020/12/22 05:24:05;;;;;;;15.18;9.13;;;5.20;99.90;;;;;;5020888;28;20049;-71
2020/12/22 05:26:33;;;;;;;19.92;11.30;;;5.20;99.90;;;;;;5025201;28;20811;-70
2020/12/22 05:29:11;;;;;;;19.60;10.02;;;5.20;99.90;;;;;;5024037;28;20640;-70
2020/12/22 05:31:45;;;;;;;18.27;10.70;;;5.20;99.90;;;;;;5029372;28;20063;-69
2020/12/22 05:34:12;;;;;;;18.42;8.98;;;5.10;99.90;;;;;;5027837;28;20113;-69
2020/12/22 05:36:40;;;;;;;15.35;9.30;;;5.10;99.90;;;;;;5023626;28;20156;-70
2020/12/22 05:39:08;;;;;;;15.70;8.35;;;5.10;99.90;;;;;;5026830;28;20053;-74
2020/12/22 05:41:36;;;;;;;12.18;7.53;;;5.20;99.90;;;;;;5029452;28;20052;-69
2020/12/22 05:44:03;;;;;;;12.52;7.60;;;5.10;99.90;;;;;;5027010;28;20484;-70
2020/12/22 05:46:33;;;;;;;8.10;7.28;;;5.10;99.90;;;;;;5025667;28;20466;-70
2020/12/22 05:49:04;;;;;;;15.95;6.68;;;5.10;99.90;;;;;;5027837;28;20136;-68
2020/12/22 05:51:37;;;;;;;8.75;5.68;;;5.10;99.90;;;;;;5029300;28;20130;-71
2020/12/22 05:54:12;;;;;;;12.20;7.15;;;5.00;99.90;;;;;;5024387;28;20056;-68
2020/12/22 05:56:39;;;;;;;8.98;6.45;;;5.00;99.90;;;;;;5021501;28;20052;-69
2020/12/22 05:59:19;;;;;;;13.27;8.38;;;5.00;99.90;;;;;;5029448;28;20056;-74
2020/12/22 06:02:06;;;;;;;12.15;5.93;;;5.00;99.90;;;;;;5021049;28;20094;-67
2020/12/22 06:04:34;;;;;;;10.50;6.88;;;5.10;99.90;;;;;;5025647;28;20049;-71
2020/12/22 06:07:00;;;;;;;16.80;6.53;;;5.10;99.90;;;;;;5019380;28;20147;-71
2020/12/22 06:09:28;;;;;;;13.40;7.35;;;5.10;99.90;;;;;;5023986;28;20156;-68
2020/12/22 06:12:01;;;;;;;25.42;18.73;;;5.00;99.90;;;;;;5022902;28;20049;-71
2020/12/22 06:14:32;;;;;;;10.60;5.63;;;5.10;99.90;;;;;;5023278;28;20049;-70
2020/12/22 06:17:05;;;;;;;9.10;5.82;;;5.00;99.90;;;;;;5027535;28;20065;-70
2020/12/22 06:19:36;;;;;;;13.48;5.65;;;5.00;99.90;;;;;;5024671;28;20615;-74
2020/12/22 06:22:03;;;;;;;10.93;7.57;;;5.00;99.90;;;;;;5029012;28;20072;-69
2020/12/22 06:24:30;;;;;;;11.35;6.28;;;5.00;99.90;;;;;;5026071;28;20040;-72
2020/12/22 06:27:13;;;;;;;9.95;5.25;;;5.00;99.90;;;;;;5025044;28;20046;-70
2020/12/22 06:29:44;;;;;;;11.35;7.07;;;5.00;99.90;;;;;;5025864;28;20068;-72
2020/12/22 06:32:30;;;;;;;12.60;6.95;;;5.00;99.90;;;;;;5021928;28;20131;-72
2020/12/22 06:35:17;;;;;;;9.57;6.43;;;5.00;99.90;;;;;;5026486;28;20044;-68
2020/12/22 06:37:44;;;;;;;11.73;7.07;;;5.00;99.90;;;;;;5043805;28;20059;-67
2020/12/22 06:40:11;;;;;;;13.88;7.10;;;4.90;99.90;;;;;;5028521;28;20037;-70
2020/12/22 06:42:43;;;;;;;17.83;9.27;;;4.90;99.90;;;;;;5029424;28;20053;-68
2020/12/22 06:45:29;;;;;;;23.02;8.38;;;5.00;99.90;;;;;;5021668;28;20048;-67
2020/12/22 06:48:00;;;;;;;;;;;5.00;99.90;;;;;;5033991;28;21369;-73
2020/12/22 06:50:43;;;;;;;18.65;10.27;;;5.00;99.90;;;;;;5028009;28;19935;-71
2020/12/22 06:53:33;;;;;;;13.75;9.75;;;5.00;99.90;;;;;;5030409;28;20061;-70
2020/12/22 06:56:00;;;;;;;23.33;14.52;;;5.00;99.90;;;;;;5036441;28;20040;-72
2020/12/22 06:58:44;;;;;;;17.67;11.90;;;5.00;99.90;;;;;;5026916;28;20214;-71
2020/12/22 07:01:26;;;;;;;17.52;12.27;;;5.00;99.90;;;;;;5025618;28;20041;-72
2020/12/22 07:04:12;;;;;;;18.85;12.55;;;5.00;99.90;;;;;;5034236;28;20049;-72
2020/12/22 07:07:01;;;;;;;23.85;13.05;;;5.10;99.90;;;;;;5027484;28;20649;-70
2020/12/22 07:09:31;;;;;;;21.05;14.45;;;5.10;99.90;;;;;;5030659;28;20409;-70
2020/12/22 07:12:09;;;;;;;27.00;15.48;;;5.10;99.90;;;;;;5033690;28;20052;-72
2020/12/22 07:14:40;;;;;;;24.98;14.27;;;5.10;99.90;;;;;;5028043;28;20072;-69
2020/12/22 07:17:12;;;;;;;21.20;15.15;;;5.10;99.90;;;;;;5033987;28;20673;-74
2020/12/22 07:19:46;;;;;;;27.27;15.07;;;5.10;99.90;;;;;;5025578;28;20049;-69
2020/12/22 07:22:16;;;;;;;21.35;12.82;;;5.10;99.90;;;;;;5025705;28;20037;-70
2020/12/22 07:24:43;;;;;;;24.80;16.25;;;5.10;99.90;;;;;;5026844;28;20045;-70
2020/12/22 07:27:11;;;;;;;25.27;16.00;;;5.10;99.90;;;;;;5027172;28;20041;-69
2020/12/22 07:29:39;;;;;;;25.15;15.90;;;5.10;99.90;;;;;;5028258;28;20099;-68
2020/12/22 07:32:24;;;;;;;24.83;14.82;;;5.10;99.90;;;;;;5026718;28;20410;-68
2020/12/22 07:34:51;;;;;;;23.55;14.52;;;5.10;99.90;;;;;;5029418;28;20049;-67
2020/12/22 07:37:18;;;;;;;25.63;16.77;;;5.10;99.90;;;;;;5027401;28;20496;-68
2020/12/22 07:39:44;;;;;;;27.73;16.42;;;5.10;99.90;;;;;;5028132;28;20057;-68
2020/12/22 07:42:15;;;;;;;26.13;16.05;;;5.10;99.90;;;;;;5025307;28;20772;-74
2020/12/22 07:44:43;;;;;;;27.98;15.93;;;5.10;99.90;;;;;;5027640;28;20084;-67
2020/12/22 07:47:11;;;;;;;24.77;16.70;;;5.10;99.90;;;;;;5028753;28;20129;-69
2020/12/22 07:49:38;;;;;;;24.13;16.48;;;5.20;99.90;;;;;;5032361;28;20135;-71
2020/12/22 07:52:16;;;;;;;25.60;15.98;;;5.10;99.90;;;;;;5025794;28;20088;-70
2020/12/22 07:54:44;;;;;;;23.73;14.35;;;5.20;99.90;;;;;;5026989;28;20046;-68
2020/12/22 07:57:11;;;;;;;26.42;16.30;;;5.20;99.90;;;;;;5030539;28;20056;-70
2020/12/22 07:59:39;;;;;;;27.80;16.58;;;5.20;99.90;;;;;;5030643;28;20416;-67
2020/12/22 08:02:06;;;;;;;27.75;15.27;;;5.20;99.90;;;;;;5025541;28;20046;-75
2020/12/22 08:04:34;;;;;;;21.90;16.42;;;5.20;99.90;;;;;;5029449;28;20148;-68
2020/12/22 08:07:03;;;;;;;19.77;13.85;;;5.20;99.90;;;;;;5025385;28;20061;-71
2020/12/22 08:09:38;;;;;;;21.13;13.20;;;5.30;99.90;;;;;;5027999;28;20068;-71
2020/12/22 08:12:07;;;;;;;20.10;14.05;;;5.30;99.90;;;;;;5030270;28;20053;-69
2020/12/22 08:14:38;;;;;;;18.27;12.50;;;5.30;99.90;;;;;;5028602;28;20111;-68
2020/12/22 08:17:16;;;;;;;21.17;13.27;;;5.30;99.90;;;;;;5026460;28;20041;-67
2020/12/22 08:19:44;;;;;;;17.65;12.40;;;5.30;99.90;;;;;;5027945;28;20037;-67
2020/12/22 08:22:18;;;;;;;25.80;14.48;;;5.30;99.90;;;;;;5030721;28;20045;-68
2020/12/22 08:24:45;;;;;;;22.63;14.75;;;5.40;99.90;;;;;;5030125;28;20127;-74
2020/12/22 08:27:12;;;;;;;25.92;14.45;;;5.40;99.90;;;;;;5026902;28;20116;-67
2020/12/22 08:29:39;;;;;;;23.20;14.70;;;5.40;99.90;;;;;;5024919;28;20052;-72
2020/12/22 08:32:06;;;;;;;22.02;11.63;;;5.40;99.90;;;;;;5027327;28;20052;-69
2020/12/22 08:34:32;;;;;;;19.23;13.82;;;5.50;99.90;;;;;;5028931;28;20041;-70
2020/12/22 08:37:09;;;;;;;19.30;12.98;;;5.50;99.90;;;;;;5033817;28;20044;-70
2020/12/22 08:39:41;;;;;;;18.40;13.10;;;5.50;99.90;;;;;;5024516;28;20041;-68
2020/12/22 08:42:09;;;;;;;25.65;14.18;;;5.50;99.90;;;;;;5030427;28;20373;-70
2020/12/22 08:44:36;;;;;;;22.35;14.93;;;5.50;99.90;;;;;;5029071;28;20069;-68
2020/12/22 08:47:13;;;;;;;21.98;13.73;;;5.50;99.90;;;;;;5032430;28;20135;-70
2020/12/22 08:49:39;;;;;;;25.98;13.43;;;5.60;99.90;;;;;;5024206;28;20056;-68
2020/12/22 08:52:16;;;;;;;23.02;14.80;;;5.60;99.90;;;;;;5025047;28;20136;-70
2020/12/22 08:54:45;;;;;;;22.30;14.48;;;5.60;99.90;;;;;;5027015;28;20045;-71
2020/12/22 08:57:16;;;;;;;26.73;15.27;;;5.50;99.90;;;;;;5027373;28;20133;-69
2020/12/22 08:59:45;;;;;;;31.92;17.05;;;5.60;99.90;;;;;;5029262;28;20045;-72
2020/12/22 09:02:23;;;;;;;27.48;17.65;;;5.60;99.90;;;;;;5024704;28;20135;-68
2020/12/22 09:04:50;;;;;;;26.38;18.05;;;5.60;99.90;;;;;;5025697;28;20943;-71
2020/12/22 09:07:16;;;;;;;30.25;17.15;;;5.60;99.90;;;;;;5029987;28;20068;-69
2020/12/22 09:09:43;;;;;;;26.83;19.25;;;5.60;99.90;;;;;;5021676;28;20052;-69
2020/12/22 09:12:10;;;;;;;28.20;16.67;;;5.60;99.90;;;;;;5029836;28;20056;-68
2020/12/22 09:14:39;;;;;;;29.50;17.60;;;5.60;99.90;;;;;;5026277;28;20357;-67
2020/12/22 09:17:06;;;;;;;28.92;19.98;;;5.60;99.90;;;;;;5026517;28;20049;-70
2020/12/22 09:19:44;;;;;;;31.38;16.67;;;5.70;99.90;;;;;;5026214;28;21293;-68
2020/12/22 09:22:11;;;;;;;26.25;18.45;;;5.70;99.90;;;;;;5019289;28;20055;-69
2020/12/22 09:24:38;;;;;;;26.92;15.85;;;5.70;99.90;;;;;;5028115;28;20110;-75
2020/12/22 09:27:07;;;;;;;22.15;15.15;;;5.70;99.90;;;;;;5023767;28;20115;-70
2020/12/22 09:29:38;;;;;;;21.95;15.05;;;5.80;99.90;;;;;;5027224;28;20044;-70
2020/12/22 09:32:07;;;;;;;26.73;14.25;;;5.70;99.90;;;;;;5024670;28;20067;-71
2020/12/22 09:34:35;;;;;;;19.05;13.68;;;5.80;99.90;;;;;;5028542;28;20121;-68
2020/12/22 09:37:07;;;;;;;15.35;11.48;;;5.80;99.90;;;;;;5023679;28;20053;-68
2020/12/22 09:39:35;;;;;;;24.40;13.13;;;5.80;99.90;;;;;;5023916;28;20040;-69
2020/12/22 09:42:03;;;;;;;25.35;12.30;;;5.80;99.90;;;;;;5031925;28;20059;-74
2020/12/22 09:44:30;;;;;;;16.88;13.35;;;5.80;99.90;;;;;;5023427;28;20060;-70
2020/12/22 09:46:57;;;;;;;17.88;12.68;;;5.90;99.90;;;;;;5025930;28;20055;-68
2020/12/22 09:49:25;;;;;;;22.35;14.18;;;5.90;99.90;;;;;;5024057;28;20073;-69
2020/12/22 09:51:52;;;;;;;26.95;12.57;;;5.90;99.90;;;;;;5020834;28;20063;-66
2020/12/22 09:54:20;;;;;;;20.95;11.73;;;5.90;99.90;;;;;;5027150;28;20098;-67
2020/12/22 09:56:47;;;;;;;20.85;12.23;;;5.90;99.90;;;;;;5023459;28;20433;-68
2020/12/22 09:59:15;;;;;;;22.63;12.75;;;5.90;99.90;;;;;;5026526;28;20573;-68
2020/12/22 10:01:43;;;;;;;26.35;12.52;;;5.90;99.90;;;;;;5023086;28;20038;-66
2020/12/22 10:04:11;;;;;;;22.85;12.68;;;5.90;99.90;;;;;;5018005;28;20038;-69
2020/12/22 10:06:37;;;;;;;21.38;11.07;;;5.90;99.90;;;;;;5028805;28;20152;-66
2020/12/22 10:09:04;;;;;;;19.00;11.00;;;5.90;99.90;;;;;;5024303;28;20119;-68
2020/12/22 10:11:32;;;;;;;18.00;12.85;;;6.00;99.90;;;;;;5027709;28;20045;-68
2020/12/22 10:14:02;;;;;;;16.45;10.63;;;5.90;99.90;;;;;;5028336;28;20049;-68
2020/12/22 10:16:29;;;;;;;21.13;12.23;;;5.90;99.90;;;;;;5025453;28;20057;-68
2020/12/22 10:18:55;;;;;;;15.80;11.05;;;6.00;99.90;;;;;;5026396;28;20044;-69
2020/12/22 10:21:42;;;;;;;19.55;11.43;;;6.00;99.90;;;;;;5026786;28;20063;-66
2020/12/22 10:24:09;;;;;;;18.98;11.75;;;6.00;99.90;;;;;;5022649;28;20068;-67
2020/12/22 10:26:35;;;;;;;19.42;12.05;;;5.90;99.90;;;;;;5031277;28;20037;-70
2020/12/22 10:29:02;;;;;;;16.52;12.00;;;5.90;99.90;;;;;;5028644;28;20041;-65
2020/12/22 10:31:29;;;;;;;18.92;10.88;;;5.90;99.90;;;;;;5028784;28;20692;-66
2020/12/22 10:33:56;;;;;;;17.20;12.38;;;5.90;99.90;;;;;;5026582;28;20052;-68
2020/12/22 10:36:24;;;;;;;23.50;12.85;;;5.90;99.90;;;;;;5033478;28;20049;-66
2020/12/22 10:38:56;;;;;;;20.15;12.32;;;5.90;99.90;;;;;;5031507;28;20115;-67
2020/12/22 10:41:25;;;;;;;18.08;11.43;;;5.90;99.90;;;;;;5028401;28;20516;-71
2020/12/22 10:43:52;;;;;;;22.45;12.60;;;5.90;99.90;;;;;;5029538;28;20453;-67
2020/12/22 10:46:19;;;;;;;20.17;14.23;;;5.90;99.90;;;;;;5023921;28;20037;-67
2020/12/22 10:48:46;;;;;;;20.60;13.45;;;5.90;99.90;;;;;;5027894;28;20080;-68
2020/12/22 10:51:14;;;;;;;18.67;11.80;;;5.90;99.90;;;;;;5031407;28;20057;-68
2020/12/22 10:53:41;;;;;;;25.23;13.57;;;5.90;99.90;;;;;;5024059;28;20366;-70
2020/12/22 10:56:18;;;;;;;19.30;13.50;;;5.90;99.90;;;;;;5030087;28;20094;-68
2020/12/22 10:58:44;;;;;;;21.42;12.70;;;5.90;99.90;;;;;;5030216;28;20719;-66
2020/12/22 11:01:15;;;;;;;21.98;14.88;;;5.90;99.90;;;;;;5030200;28;20045;-70
2020/12/22 11:03:42;;;;;;;;;;;5.80;99.90;;;;;;5034858;28;20140;-69
2020/12/22 11:08:47;;;;;;;29.00;14.73;;;5.80;99.90;;;;;;5062816;28;20072;-68
2020/12/22 11:11:14;;;;;;;23.70;14.57;;;5.80;99.90;;;;;;5035294;28;20144;-66
2020/12/22 11:13:40;;;;;;;26.58;17.27;;;5.80;99.90;;;;;;5029693;28;20064;-70
2020/12/22 11:16:10;;;;;;;22.42;14.10;;;5.80;99.90;;;;;;5031339;28;20068;-66
2020/12/22 11:18:40;;;;;;;25.88;17.17;;;5.70;99.90;;;;;;5028974;28;20041;-66
2020/12/22 11:21:12;;;;;;;22.70;15.00;;;5.70;99.90;;;;;;5026293;28;20049;-68
2020/12/22 11:23:44;;;;;;;21.90;15.88;;;5.70;99.90;;;;;;5024578;28;20046;-69
2020/12/22 11:26:23;;;;;;;26.55;17.15;;;5.70;99.90;;;;;;5027141;28;20052;-67
2020/12/22 11:28:50;;;;;;;24.80;16.00;;;5.70;99.90;;;;;;5026370;28;20694;-69
2020/12/22 11:31:17;;;;;;;26.35;16.67;;;5.70;99.90;;;;;;5030359;28;20049;-66
2020/12/22 11:33:45;;;;;;;29.02;19.38;;;5.60;99.90;;;;;;5028085;28;20576;-69
2020/12/22 11:36:16;;;;;;;24.98;14.68;;;5.60;99.90;;;;;;5030554;28;20058;-67
2020/12/22 11:38:44;;;;;;;27.75;17.15;;;5.70;99.90;;;;;;5026956;28;20255;-67
2020/12/22 11:41:12;;;;;;;26.75;17.25;;;5.70;99.90;;;;;;5025101;28;20068;-68
2020/12/22 11:43:39;;;;;;;28.30;16.33;;;5.70;99.90;;;;;;5026139;28;20034;-68
2020/12/22 11:46:06;;;;;;;25.25;15.02;;;5.70;99.90;;;;;;5027705;28;20045;-66
2020/12/22 11:48:36;;;;;;;26.73;16.33;;;5.70;99.90;;;;;;5027911;28;20353;-69
2020/12/22 11:51:03;;;;;;;29.20;16.52;;;5.70;99.90;;;;;;5027226;28;20515;-68
2020/12/22 11:53:31;;;;;;;25.63;19.67;;;5.70;99.90;;;;;;5025759;28;20059;-68
2020/12/22 11:55:58;;;;;;;28.60;16.40;;;5.70;99.90;;;;;;5026791;28;20446;-67
2020/12/22 11:58:25;;;;;;;27.50;16.38;;;5.70;99.90;;;;;;5027586;28;20193;-66
2020/12/22 12:00:51;;;;;;;28.80;17.00;;;5.70;99.90;;;;;;5028239;28;20056;-68
2020/12/22 12:03:18;;;;;;;29.08;19.13;;;5.70;99.90;;;;;;5026406;28;20057;-66
2020/12/22 12:05:44;;;;;;;26.45;17.20;;;5.80;99.90;;;;;;5025016;28;20037;-66
2020/12/22 12:08:11;;;;;;;30.17;18.25;;;5.80;99.90;;;;;;5026484;28;20068;-67
2020/12/22 12:10:37;;;;;;;27.20;17.98;;;5.80;99.90;;;;;;5022912;28;20088;-67
2020/12/22 12:13:04;;;;;;;26.58;17.30;;;5.80;99.90;;;;;;5023531;28;20045;-69
2020/12/22 12:15:30;;;;;;;28.33;17.45;;;5.80;99.90;;;;;;5026408;28;20049;-67
2020/12/22 12:17:57;;;;;;;25.70;17.13;;;5.80;99.90;;;;;;5025099;28;20049;-67
2020/12/22 12:20:24;;;;;;;26.13;17.45;;;5.80;99.90;;;;;;5026032;28;20476;-69
2020/12/22 12:22:52;;;;;;;30.13;18.50;;;5.80;99.90;;;;;;5021443;28;20049;-67
2020/12/22 12:25:19;;;;;;;32.28;20.38;;;5.80;99.90;;;;;;5026886;28;20087;-71
2020/12/22 12:27:46;;;;;;;29.95;19.25;;;5.80;99.90;;;;;;5024119;28;20045;-66
2020/12/22 12:30:13;;;;;;;29.85;19.27;;;5.80;99.90;;;;;;5022503;28;20053;-69
2020/12/22 12:32:39;;;;;;;35.45;20.55;;;5.80;99.90;;;;;;5031038;28;20065;-67
2020/12/22 12:35:06;;;;;;;28.27;19.23;;;5.70;99.90;;;;;;5022946;28;20046;-66
2020/12/22 12:37:33;;;;;;;32.50;19.50;;;5.80;99.90;;;;;;5025962;28;20049;-68
2020/12/22 12:39:59;;;;;;;28.58;19.92;;;5.80;99.90;;;;;;5025556;28;20538;-69
2020/12/22 12:42:27;;;;;;;26.63;20.73;;;5.70;99.90;;;;;;5022664;28;20053;-68
2020/12/22 12:44:54;;;;;;;29.42;19.50;;;5.80;99.90;;;;;;5027441;28;20043;-66
2020/12/22 12:47:21;;;;;;;30.50;20.58;;;5.80;99.90;;;;;;5028102;28;20076;-69
2020/12/22 12:49:47;;;;;;;32.45;20.98;;;5.80;99.90;;;;;;5027253;28;20050;-68
2020/12/22 12:52:14;;;;;;;32.30;19.65;;;5.80;99.90;;;;;;5028113;28;20090;-66